San Clemente, CA (92673)

5:32 PM PDT on September 01, 2015 (GMT -0700)
APRSWXNET | | Change Station
CLOSE
Current Station
Personal Weather Station
Location: San Clemente, CA
Elevation: 492 ft
Nearby Weather Stations

Elev 492 ft 33.47 °N, 117.61 °W | Updated 28 minutes ago

Partly Cloudy
Partly Cloudy
74 °F
Feels Like 76 °F
N
4
Wind Variable Wind from SSW
Gusts 12.0 mph

Today
High -- | Low -- °F
--% Chance of Precip.
Yesterday
High -- | Low -- °F
Precip. -- in
6:24 AM 7:16 PM
Waning Gibbous, 85% visible
Pressure 30.15 in
Visibility 7.0 miles
Clouds Few 1800 ft
Heat Index 76 °F
Dew Point 62 °F
Humidity 66%
Rainfall in
Snow Depth Not available.
UV 3 out of 12
Pollen 7.20 out of 12
Air Quality Not available.
Flu Activity Not available.
METAR KNXF 012356Z AUTO 22007KT 7SM FEW018 22/16 A2990 RMK AO2 SLP209 T02220161 10256 20222 55004 $
Pressure 30.15 in
Visibility 7.0 miles
Clouds Few 1800 ft
Heat Index 76 °F
Dew Point 62 °F
Humidity 66%
Rainfall in
Snow Depth Not available.
UV 3 out of 12
Pollen 7.20 out of 12
Air Quality Not available.
Flu Activity Not available.
METAR KNXF 012356Z AUTO 22007KT 7SM FEW018 22/16 A2990 RMK AO2 SLP209 T02220161 10256 20222 55004 $

10-Day Weather Forecast

×

Almanac

Astronomy

Sep. 01, 2015 Rise Set
Actual Time
Civil Twilight
Nautical Twilight
Astronomical Twilight
Moon
Length of Visible Light
Length of Day
Tomorrow will be .
, % of the Moon is Illuminated

Today's Extremes

State Highs State Lows

Community

WunderPhotos

Upload Photos

1,851,657 photos uploaded!

WunderBlogs® & News

Nearby

Air Quality

  Air Quality AQ Index Pollutant
Not available.

Snow Depth

Station Depth Elevation

Earthquake Activity

City Distance Mag. Time & Date
Minimum magnitude displayed is 2.5.

Coastal Water Temperatures

Place Temperature

Stations

Nearby Weather Stations

Station Location Temp. Windchill Dew Point Humidity Wind Precip. Elev Updated Type